Time;durP1;ratioP1;P1;durP2;ratioP2;P2;SDS_P1;SDS_P2;PMS_P1;PMS_P2;Temp;Humidity;BMP_temperature;BMP_pressure;BME280_temperature;BME280_humidity;BME280_pressure;Samples;Min_cycle;Max_cycle;Signal;HPM_P1;HPM_P2
2022/08/12 00:45:05;;;;;;;;;;;;;;;24.59;45.70;98167.56;4984730;28;19945;-85
2022/08/12 00:47:32;;;;;;;;;;;;;;;24.56;45.54;98160.06;4986799;28;20392;-82
2022/08/12 00:49:59;;;;;;;;;;;;;;;24.55;45.69;98153.78;5002641;28;19925;-84
2022/08/12 00:52:27;;;;;;;;;;;;;;;24.53;45.82;98164.28;4989608;28;19976;-82
2022/08/12 00:54:56;;;;;;;;;;;;;;;24.46;46.01;98155.88;4994640;28;20012;-83
2022/08/12 00:57:23;;;;;;;;;;;;;;;24.45;45.86;98159.75;4996791;28;19979;-83
2022/08/12 00:59:52;;;;;;;;;;;;;;;24.36;45.97;98163.75;5001712;28;20008;-83
2022/08/12 01:02:23;;;;;;;;;;;;;;;24.34;46.21;98155.94;5000446;28;19926;-83
2022/08/12 01:13:06;;;;;;;;;;;;;;;24.34;46.26;98161.38;5011038;28;19936;-82
2022/08/12 01:15:32;;;;;;;;;;;;;;;24.24;46.40;98159.13;5009285;28;20003;-84
2022/08/12 01:17:59;;;;;;;;;;;;;;;23.99;46.75;98155.66;5004438;28;19993;-83
2022/08/12 01:20:33;;;;;;;;;;;;;;;23.90;46.99;98151.47;4997789;28;19973;-83
2022/08/12 01:23:19;;;;;;;;;;;;;;;24.05;46.72;98150.75;5000994;28;19956;-83
2022/08/12 01:25:49;;;;;;;;;;;;;;;23.96;47.05;98150.88;5003815;28;19933;-83
2022/08/12 01:28:17;;;;;;;;;;;;;;;23.17;48.46;98158.84;4997539;28;20496;-83
2022/08/12 01:30:43;;;;;;;;;;;;;;;23.11;48.52;98153.63;5004680;28;19935;-84
2022/08/12 01:33:14;;;;;;;;;;;;;;;22.95;48.59;98149.16;4989512;28;19931;-82
2022/08/12 01:35:44;;;;;;;;;;;;;;;23.33;48.06;98157.06;4995770;28;19933;-83
2022/08/12 01:38:14;;;;;;;;;;;;;;;22.98;48.78;98149.28;4996515;28;20747;-82
2022/08/12 01:40:44;;;;;;;;;;;;;;;23.28;48.18;98149.88;4993120;28;19969;-83
2022/08/12 01:43:15;;;;;;;;;;;;;;;23.58;47.85;98134.91;4988281;28;19929;-82
2022/08/12 01:45:47;;;;;;;;;;;;;;;23.75;47.43;98144.78;5000072;28;19929;-82
2022/08/12 01:48:18;;;;;;;;;;;;;;;23.67;47.48;98132.09;5014208;28;19935;-83
2022/08/12 01:50:50;;;;;;;;;;;;;;;23.67;47.61;98127.41;5002009;28;19929;-83
2022/08/12 01:53:19;;;;;;;;;;;;;;;23.75;47.32;98133.88;4992570;28;19929;-84
2022/08/12 01:55:47;;;;;;;;;;;;;;;23.81;47.38;98134.44;5005063;28;20431;-83
2022/08/12 01:58:27;;;;;;;;;;;;;;;23.83;47.14;98134.91;4999607;28;19965;-81
2022/08/12 02:00:57;;;;;;;;;;;;;;;23.80;47.29;98135.59;4995306;28;20621;-83
2022/08/12 02:12:05;;;;;;;;;;;;;;;23.74;47.31;98124.09;4992701;28;20091;-84
2022/08/12 02:14:39;;;;;;;;;;;;;;;23.70;47.35;98130.59;5004691;28;20479;-84
2022/08/12 02:17:15;;;;;;;;;;;;;;;23.51;47.86;98131.19;4986938;28;20262;-82
2022/08/12 02:19:47;;;;;;;;;;;;;;;23.56;47.79;98126.28;5005470;28;20376;-83
2022/08/12 02:22:22;;;;;;;;;;;;;;;23.59;47.80;98114.69;5003706;28;20643;-83
2022/08/12 02:24:49;;;;;;;;;;;;;;;23.59;47.72;98122.06;5004671;28;19929;-82
2022/08/12 02:27:17;;;;;;;;;;;;;;;23.54;47.93;98125.84;5004135;28;19925;-81
2022/08/12 02:29:45;;;;;;;;;;;;;;;23.58;47.77;98113.09;5005022;28;19930;-84
2022/08/12 02:32:11;;;;;;;;;;;;;;;23.62;47.69;98113.22;4994597;28;19926;-82
2022/08/12 02:34:38;;;;;;;;;;;;;;;23.57;47.92;98111.53;5001823;28;19930;-83
2022/08/12 02:37:05;;;;;;;;;;;;;;;23.55;47.83;98113.78;4995393;28;19933;-82
2022/08/12 02:39:32;;;;;;;;;;;;;;;23.55;47.76;98107.56;4991489;28;19948;-82
2022/08/12 02:42:00;;;;;;;;;;;;;;;23.51;48.08;98102.00;4996213;28;19941;-83
2022/08/12 02:44:28;;;;;;;;;;;;;;;23.44;48.26;98104.50;5003727;28;20384;-82
2022/08/12 02:47:00;;;;;;;;;;;;;;;23.43;48.13;98104.81;4997631;28;19936;-84
2022/08/12 02:49:30;;;;;;;;;;;;;;;23.32;48.45;98103.66;5001207;28;19932;-84
2022/08/12 02:51:58;;;;;;;;;;;;;;;23.22;48.54;98104.91;4990818;28;19926;-82
2022/08/12 02:54:25;;;;;;;;;;;;;;;23.21;48.63;98103.31;4991968;28;19936;-83
2022/08/12 02:56:52;;;;;;;;;;;;;;;23.12;48.77;98106.16;4996404;28;19929;-84
2022/08/12 02:59:19;;;;;;;;;;;;;;;23.05;49.06;98099.69;4990393;28;20041;-83
2022/08/12 03:01:47;;;;;;;;;;;;;;;22.89;49.42;98099.56;4997028;28;19934;-83
2022/08/12 03:04:18;;;;;;;;;;;;;;;22.89;49.55;98106.94;5003528;28;19929;-82
2022/08/12 03:06:47;;;;;;;;;;;;;;;22.93;49.50;98103.19;5004687;28;20603;-84
2022/08/12 03:09:15;;;;;;;;;;;;;;;22.87;49.35;98098.31;5005877;28;20425;-83
2022/08/12 03:11:44;;;;;;;;;;;;;;;23.05;48.97;98094.25;4993867;28;19930;-83
2022/08/12 03:14:13;;;;;;;;;;;;;;;23.04;48.98;98084.47;5005354;28;19936;-83
2022/08/12 03:16:40;;;;;;;;;;;;;;;23.10;48.85;98089.38;5003228;28;20016;-82
2022/08/12 03:19:07;;;;;;;;;;;;;;;23.05;49.03;98086.09;5004541;28;20451;-83
2022/08/12 03:21:36;;;;;;;;;;;;;;;23.05;49.06;98092.31;5001328;28;19929;-84
2022/08/12 03:24:04;;;;;;;;;;;;;;;22.87;49.56;98088.19;5004979;28;19929;-84
2022/08/12 03:26:34;;;;;;;;;;;;;;;22.66;49.74;98092.13;4999465;28;19930;-81
2022/08/12 03:29:01;;;;;;;;;;;;;;;22.84;49.66;98082.66;5004685;28;20569;-83
2022/08/12 03:31:28;;;;;;;;;;;;;;;22.88;49.35;98083.56;4999307;28;20635;-83
2022/08/12 03:33:56;;;;;;;;;;;;;;;22.79;49.73;98091.03;4994466;28;20032;-84
2022/08/12 03:36:24;;;;;;;;;;;;;;;22.56;50.28;98093.34;5000830;28;19936;-83
2022/08/12 03:39:18;;;;;;;;;;;;;;;22.25;50.86;98093.78;4995703;28;19930;-81
2022/08/12 03:41:48;;;;;;;;;;;;;;;22.24;51.25;98094.94;4991561;28;19988;-83
2022/08/12 04:00:47;;;;;;;;;;;;;;;22.31;51.52;98097.13;4994900;28;19963;-81
2022/08/12 04:05:54;;;;;;;;;;;;;;;22.37;51.51;98099.31;5005425;28;19926;-83
2022/08/12 04:08:23;;;;;;;;;;;;;;;22.18;51.73;98095.47;4995798;28;20559;-81
2022/08/12 04:13:36;;;;;;;;;;;;;;;22.16;51.91;98100.47;4990525;28;19948;-82
2022/08/12 04:16:05;;;;;;;;;;;;;;;22.18;51.87;98104.44;5008952;28;19980;-83
2022/08/12 04:18:32;;;;;;;;;;;;;;;22.05;52.18;98102.78;5007543;28;19956;-84
2022/08/12 04:21:01;;;;;;;;;;;;;;;22.01;52.46;98104.56;5009345;28;20409;-84
2022/08/12 04:23:27;;;;;;;;;;;;;;;21.98;52.39;98114.19;5000508;28;19926;-83
2022/08/12 04:25:55;;;;;;;;;;;;;;;21.94;52.83;98112.47;5007053;28;19925;-82
2022/08/12 04:28:24;;;;;;;;;;;;;;;21.97;52.65;98109.09;5004121;28;20076;-83
2022/08/12 04:30:51;;;;;;;;;;;;;;;22.02;52.68;98114.31;4999903;28;19929;-84
2022/08/12 04:33:18;;;;;;;;;;;;;;;21.82;53.01;98109.63;4996405;28;19984;-82
2022/08/12 04:35:45;;;;;;;;;;;;;;;21.95;53.08;98105.91;5002024;28;20642;-83
2022/08/12 04:38:11;;;;;;;;;;;;;;;21.99;52.89;98101.41;4998511;28;19980;-81
2022/08/12 04:40:38;;;;;;;;;;;;;;;21.98;53.11;98105.22;5000258;28;20412;-83
2022/08/12 04:43:05;;;;;;;;;;;;;;;21.99;53.00;98106.84;4996882;28;19937;-83
2022/08/12 04:45:33;;;;;;;;;;;;;;;22.00;52.86;98103.75;5005625;28;19925;-83
2022/08/12 04:48:00;;;;;;;;;;;;;;;21.96;52.96;98104.78;5003091;28;19968;-82
2022/08/12 04:50:28;;;;;;;;;;;;;;;21.80;53.19;98111.91;5000802;28;19980;-84
2022/08/12 04:52:55;;;;;;;;;;;;;;;21.76;53.54;98108.25;4993850;28;19932;-83
2022/08/12 04:55:22;;;;;;;;;;;;;;;21.78;53.76;98106.00;4995213;28;19952;-84
2022/08/12 04:57:49;;;;;;;;;;;;;;;21.91;53.47;98110.44;4989538;28;20025;-84
2022/08/12 05:00:17;;;;;;;;;;;;;;;21.56;54.00;98109.03;4995182;28;20017;-83
2022/08/12 05:02:43;;;;;;;;;;;;;;;21.12;55.44;98116.63;4995790;28;19930;-83
2022/08/12 05:05:12;;;;;;;;;;;;;;;20.91;57.00;98111.09;5003263;28;20286;-84
2022/08/12 05:07:39;;;;;;;;;;;;;;;21.30;55.66;98118.13;5004665;28;20455;-83
2022/08/12 05:10:06;;;;;;;;;;;;;;;21.43;55.62;98108.94;5005231;28;20008;-83
2022/08/12 05:12:35;;;;;;;;;;;;;;;21.56;55.07;98111.75;5004743;28;20419;-83
2022/08/12 05:15:01;;;;;;;;;;;;;;;21.58;55.20;98114.91;5002319;28;19932;-83
2022/08/12 05:17:29;;;;;;;;;;;;;;;21.56;55.18;98120.69;4998115;28;20646;-83
2022/08/12 05:19:55;;;;;;;;;;;;;;;21.17;56.73;98123.78;4999737;28;19929;-83
2022/08/12 05:22:21;;;;;;;;;;;;;;;20.36;59.96;98124.59;4997838;28;19925;-82
2022/08/12 05:24:48;;;;;;;;;;;;;;;19.99;63.66;98127.97;5005627;28;19959;-83
2022/08/12 05:27:14;;;;;;;;;;;;;;;20.18;64.26;98131.13;4993948;28;19936;-84
2022/08/12 05:29:41;;;;;;;;;;;;;;;20.41;63.26;98124.44;4995171;28;19934;-82
2022/08/12 05:32:08;;;;;;;;;;;;;;;20.04;66.36;98135.94;4992844;28;20578;-83
2022/08/12 05:34:35;;;;;;;;;;;;;;;19.98;67.44;98134.50;4983801;28;19938;-83
2022/08/12 05:37:02;;;;;;;;;;;;;;;20.79;62.46;98127.25;4994744;28;20040;-83
2022/08/12 05:39:29;;;;;;;;;;;;;;;20.80;62.15;98133.44;4986690;28;19972;-83
2022/08/12 05:41:55;;;;;;;;;;;;;;;20.51;64.10;98142.31;4988662;28;20024;-82
2022/08/12 05:44:21;;;;;;;;;;;;;;;20.22;66.68;98140.22;4989083;28;19925;-82
2022/08/12 05:46:48;;;;;;;;;;;;;;;20.33;66.09;98133.38;4975942;28;19930;-83
2022/08/12 05:49:15;;;;;;;;;;;;;;;20.20;67.53;98144.38;4991997;28;19929;-83
2022/08/12 05:51:42;;;;;;;;;;;;;;;20.45;66.90;98136.25;4991471;28;19929;-83
2022/08/12 05:54:09;;;;;;;;;;;;;;;21.10;63.12;98132.44;4986252;28;20728;-84
2022/08/12 05:56:36;;;;;;;;;;;;;;;21.18;63.34;98134.31;4990523;28;19937;-82
2022/08/12 05:59:06;;;;;;;;;;;;;;;20.88;65.17;98143.50;4992849;28;19933;-83
2022/08/12 06:01:32;;;;;;;;;;;;;;;20.52;68.91;98140.41;4988485;28;20011;-83
2022/08/12 06:03:59;;;;;;;;;;;;;;;21.01;65.18;98147.94;4994056;28;20395;-84
2022/08/12 06:06:26;;;;;;;;;;;;;;;20.88;67.24;98148.94;4994869;28;19933;-82
2022/08/12 06:08:54;;;;;;;;;;;;;;;21.06;66.00;98149.66;4993041;28;19939;-83
2022/08/12 06:11:21;;;;;;;;;;;;;;;21.59;62.75;98154.56;4988450;28;20012;-82
2022/08/12 06:13:48;;;;;;;;;;;;;;;21.61;63.46;98155.03;4996445;28;20024;-82
2022/08/12 06:16:16;;;;;;;;;;;;;;;21.73;61.93;98142.31;4989943;28;20021;-83
2022/08/12 06:18:42;;;;;;;;;;;;;;;21.52;63.88;98164.03;4996435;28;19929;-84
2022/08/12 06:21:09;;;;;;;;;;;;;;;21.39;64.69;98159.63;4996246;28;20260;-83
2022/08/12 06:23:36;;;;;;;;;;;;;;;21.61;63.47;98155.84;4982252;28;20000;-81
2022/08/12 06:26:06;;;;;;;;;;;;;;;21.75;62.69;98150.97;5003931;28;20675;-82
2022/08/12 06:28:32;;;;;;;;;;;;;;;21.86;61.74;98148.63;4992283;28;19972;-82
2022/08/12 06:30:59;;;;;;;;;;;;;;;21.59;61.99;98146.41;4991683;28;19939;-83
2022/08/12 06:33:25;;;;;;;;;;;;;;;21.66;62.07;98144.00;4994669;28;20036;-83
2022/08/12 06:35:52;;;;;;;;;;;;;;;21.83;61.16;98147.38;4996002;28;19932;-83
2022/08/12 06:38:20;;;;;;;;;;;;;;;22.03;60.67;98152.06;4989812;28;20029;-82
2022/08/12 06:43:34;;;;;;;;;;;;;;;21.85;60.35;98155.22;4991559;28;19933;-83
2022/08/12 06:46:00;;;;;;;;;;;;;;;22.14;59.61;98152.47;4980776;28;20025;-83
2022/08/12 06:48:27;;;;;;;;;;;;;;;22.22;58.63;98148.09;4984399;28;19926;-84
2022/08/12 06:50:54;;;;;;;;;;;;;;;22.44;58.01;98145.78;4990771;28;20032;-83
2022/08/12 06:53:20;;;;;;;;;;;;;;;22.55;57.73;98140.75;4981929;28;19925;-82
2022/08/12 06:55:46;;;;;;;;;;;;;;;22.49;57.25;98142.88;4987654;28;19984;-83
2022/08/12 06:58:13;;;;;;;;;;;;;;;22.54;57.05;98139.16;4999005;28;19932;-82
2022/08/12 07:00:42;;;;;;;;;;;;;;;22.52;57.17;98144.94;4990208;28;20020;-83
2022/08/12 07:03:09;;;;;;;;;;;;;;;22.77;56.58;98147.75;4993235;28;20273;-82
2022/08/12 07:05:36;;;;;;;;;;;;;;;22.84;56.16;98137.13;4998264;28;20021;-83
2022/08/12 07:08:06;;;;;;;;;;;;;;;22.86;55.97;98138.38;4999632;28;19968;-83
2022/08/12 07:10:33;;;;;;;;;;;;;;;23.04;56.03;98139.75;4999630;28;20424;-83
2022/08/12 07:13:00;;;;;;;;;;;;;;;23.02;55.70;98143.97;5000993;28;20395;-83
2022/08/12 07:15:28;;;;;;;;;;;;;;;23.06;55.55;98133.97;5012456;28;19926;-81
2022/08/12 07:17:59;;;;;;;;;;;;;;;23.14;54.81;98146.69;5004928;28;20639;-83
2022/08/12 07:20:28;;;;;;;;;;;;;;;23.13;54.76;98145.09;5005220;28;20028;-82
2022/08/12 07:22:54;;;;;;;;;;;;;;;23.22;54.81;98134.88;4988342;28;20364;-82
2022/08/12 07:25:33;;;;;;;;;;;;;;;23.22;54.14;98134.88;4989693;28;19984;-83
2022/08/12 07:28:02;;;;;;;;;;;;;;;23.29;54.07;98143.31;4997803;28;19980;-82
2022/08/12 07:30:29;;;;;;;;;;;;;;;23.25;54.31;98136.13;4985889;28;20012;-83
2022/08/12 07:33:00;;;;;;;;;;;;;;;23.23;54.02;98139.22;4996597;28;19984;-82
2022/08/12 07:35:27;;;;;;;;;;;;;;;23.20;53.94;98145.34;4996187;28;19929;-83
2022/08/12 07:37:54;;;;;;;;;;;;;;;23.13;53.55;98142.38;4989376;28;19965;-82
2022/08/12 07:40:21;;;;;;;;;;;;;;;22.90;54.06;98136.53;5004963;28;19942;-82
2022/08/12 07:42:48;;;;;;;;;;;;;;;23.16;53.67;98132.72;4991638;28;20013;-84
2022/08/12 07:45:14;;;;;;;;;;;;;;;23.20;53.27;98131.72;5011245;28;20296;-84
2022/08/12 07:47:42;;;;;;;;;;;;;;;23.21;53.17;98141.47;4984648;28;19969;-82
2022/08/12 07:50:11;;;;;;;;;;;;;;;23.23;53.30;98143.88;4994377;28;19936;-82
2022/08/12 07:52:40;;;;;;;;;;;;;;;23.27;52.85;98144.78;4999791;28;20296;-83
2022/08/12 07:55:06;;;;;;;;;;;;;;;23.23;52.76;98139.22;5002708;28;19929;-84
2022/08/12 07:57:33;;;;;;;;;;;;;;;23.25;52.76;98136.94;5000201;28;20330;-84
2022/08/12 08:00:04;;;;;;;;;;;;;;;23.45;52.49;98130.63;4990262;28;19967;-84
2022/08/12 08:02:32;;;;;;;;;;;;;;;23.38;52.30;98129.56;4992023;28;19932;-83
2022/08/12 08:04:59;;;;;;;;;;;;;;;23.46;51.92;98132.19;4998738;28;19981;-84
2022/08/12 08:07:28;;;;;;;;;;;;;;;23.45;51.84;98125.16;4999523;28;19929;-84
2022/08/12 08:09:56;;;;;;;;;;;;;;;23.56;51.94;98129.00;5000574;28;19932;-83
2022/08/12 08:15:07;;;;;;;;;;;;;;;23.33;52.51;98133.31;4997336;28;19936;-85
2022/08/12 08:17:33;;;;;;;;;;;;;;;23.35;52.26;98136.50;4994823;28;20051;-84
2022/08/12 08:19:59;;;;;;;;;;;;;;;23.37;52.14;98134.22;4998057;28;19929;-83
2022/08/12 08:22:27;;;;;;;;;;;;;;;23.42;51.84;98133.22;4994141;28;20020;-84
2022/08/12 08:24:56;;;;;;;;;;;;;;;23.31;52.11;98135.56;4994928;28;19929;-84
2022/08/12 08:27:23;;;;;;;;;;;;;;;23.39;52.09;98125.72;4992934;28;19929;-82
2022/08/12 08:29:49;;;;;;;;;;;;;;;23.48;52.06;98134.59;4988257;28;19956;-84
2022/08/12 08:32:15;;;;;;;;;;;;;;;23.45;52.21;98140.72;4993108;28;20017;-82
2022/08/12 08:34:45;;;;;;;;;;;;;;;23.47;52.23;98139.25;4998844;28;19929;-83
2022/08/12 08:37:14;;;;;;;;;;;;;;;23.63;52.01;98139.34;4986680;28;20309;-84
2022/08/12 08:39:41;;;;;;;;;;;;;;;23.81;51.43;98146.16;4989441;28;19929;-84
2022/08/12 08:44:54;;;;;;;;;;;;;;;23.70;49.69;98130.59;4994151;28;19948;-82
2022/08/12 08:47:20;;;;;;;;;;;;;;;23.62;49.54;98130.38;4994700;28;19929;-82
2022/08/12 08:49:47;;;;;;;;;;;;;;;23.72;48.66;98128.31;4992159;28;19925;-84
2022/08/12 08:52:13;;;;;;;;;;;;;;;23.71;48.93;98126.72;4994052;28;20526;-84
2022/08/12 08:54:39;;;;;;;;;;;;;;;23.62;49.20;98130.38;5002257;28;19932;-83
2022/08/12 08:57:07;;;;;;;;;;;;;;;23.62;48.86;98124.91;5002614;28;20672;-82
2022/08/12 08:59:34;;;;;;;;;;;;;;;23.69;48.79;98123.53;4994959;28;20205;-83
2022/08/12 09:02:01;;;;;;;;;;;;;;;23.76;48.29;98129.22;5000341;28;19929;-82
2022/08/12 09:04:27;;;;;;;;;;;;;;;23.71;48.34;98130.25;5007050;28;19949;-84
2022/08/12 09:06:57;;;;;;;;;;;;;;;23.72;47.86;98131.03;5005825;28;20024;-83
2022/08/12 09:09:24;;;;;;;;;;;;;;;23.74;47.74;98147.88;5001319;28;19980;-83
2022/08/12 09:14:35;;;;;;;;;;;;;;;23.62;47.47;98138.56;4997233;28;19972;-84
2022/08/12 09:17:01;;;;;;;;;;;;;;;23.86;47.24;98134.22;4999277;28;20416;-82
2022/08/12 09:19:28;;;;;;;;;;;;;;;23.92;47.26;98135.56;5006820;28;20361;-84
2022/08/12 09:21:56;;;;;;;;;;;;;;;23.93;47.06;98126.22;5001908;28;19929;-82
2022/08/12 09:24:22;;;;;;;;;;;;;;;24.08;46.93;98125.50;5007721;28;20024;-83
2022/08/12 09:26:49;;;;;;;;;;;;;;;24.10;46.72;98109.59;5002110;28;19929;-84
2022/08/12 09:29:17;;;;;;;;;;;;;;;24.19;45.85;98115.72;5005238;28;19925;-86
2022/08/12 09:31:45;;;;;;;;;;;;;;;24.26;45.04;98115.13;4998564;28;19937;-85
2022/08/12 09:34:12;;;;;;;;;;;;;;;24.25;44.76;98124.47;4997726;28;19930;-84
2022/08/12 09:36:39;;;;;;;;;;;;;;;24.23;44.28;98110.38;5001685;28;20017;-84
2022/08/12 09:39:07;;;;;;;;;;;;;;;24.14;44.47;98114.03;4997189;28;19934;-84
2022/08/12 09:41:37;;;;;;;;;;;;;;;24.32;44.55;98122.75;4995837;28;19929;-84
2022/08/12 09:46:49;;;;;;;;;;;;;;;24.47;43.66;98121.19;4998253;28;20019;-84
2022/08/12 09:49:16;;;;;;;;;;;;;;;24.46;42.98;98109.47;5006235;28;19930;-83
2022/08/12 09:51:46;;;;;;;;;;;;;;;24.35;43.90;98107.59;5005007;28;19929;-85
2022/08/12 09:54:14;;;;;;;;;;;;;;;24.51;43.78;98103.75;4996477;28;19929;-85
2022/08/12 09:56:40;;;;;;;;;;;;;;;24.58;43.34;98105.88;4992575;28;19934;-83
2022/08/12 09:59:08;;;;;;;;;;;;;;;24.62;43.33;98096.66;4995334;28;19929;-84
2022/08/12 10:01:37;;;;;;;;;;;;;;;24.63;43.00;98083.78;4989698;28;19931;-84
2022/08/12 10:04:08;;;;;;;;;;;;;;;24.48;43.05;98092.75;5005848;28;19932;-84
2022/08/12 10:06:35;;;;;;;;;;;;;;;24.61;43.47;98092.31;5004028;28;19929;-83
2022/08/12 10:09:01;;;;;;;;;;;;;;;24.61;42.97;98095.06;5009035;28;19936;-82
2022/08/12 10:14:11;;;;;;;;;;;;;;;24.85;42.49;98088.66;5006350;28;19925;-84
2022/08/12 10:16:42;;;;;;;;;;;;;;;24.76;42.78;98092.72;5004940;28;19929;-83
2022/08/12 10:19:10;;;;;;;;;;;;;;;24.80;43.27;98083.44;5005884;28;20359;-83
2022/08/12 10:21:37;;;;;;;;;;;;;;;24.90;43.28;98082.97;5002504;28;20582;-84
2022/08/12 10:24:04;;;;;;;;;;;;;;;24.88;43.71;98085.22;5004183;28;20626;-82
2022/08/12 10:32:00;;;;;;;;;;;;;;;25.18;43.29;98080.94;5000651;28;19975;-83
2022/08/12 10:34:27;;;;;;;;;;;;;;;25.24;43.45;98067.78;4998173;28;19936;-84
2022/08/12 10:36:57;;;;;;;;;;;;;;;25.27;43.04;98067.06;5001475;28;19940;-84
2022/08/12 10:39:25;;;;;;;;;;;;;;;25.19;43.19;98074.28;4994834;28;19933;-84
2022/08/12 10:44:35;;;;;;;;;;;;;;;25.37;42.61;98060.25;5002012;28;19936;-83
2022/08/12 10:47:02;;;;;;;;;;;;;;;25.46;42.69;98064.38;5002055;28;19943;-84
2022/08/12 10:49:30;;;;;;;;;;;;;;;25.43;42.77;98070.56;4990457;28;20470;-85
2022/08/12 10:51:57;;;;;;;;;;;;;;;25.46;42.73;98067.13;5006709;28;19933;-84
2022/08/12 10:54:24;;;;;;;;;;;;;;;25.45;42.37;98062.78;4998138;28;20408;-84
2022/08/12 10:56:50;;;;;;;;;;;;;;;25.60;42.71;98053.78;4996203;28;19926;-85
2022/08/12 10:59:18;;;;;;;;;;;;;;;25.62;42.86;98050.72;4997836;28;19933;-85
2022/08/12 11:01:44;;;;;;;;;;;;;;;25.66;42.69;98046.09;4997960;28;19976;-84
2022/08/12 11:04:12;;;;;;;;;;;;;;;25.62;42.94;98059.72;5005850;28;19929;-83
2022/08/12 11:06:46;;;;;;;;;;;;;;;25.63;43.07;98042.13;5004143;28;19933;-84
2022/08/12 11:09:13;;;;;;;;;;;;;;;25.74;42.83;98047.84;5008543;28;19979;-83
2022/08/12 11:11:41;;;;;;;;;;;;;;;25.68;43.06;98036.41;5009280;28;19955;-84
2022/08/12 11:14:07;;;;;;;;;;;;;;;25.72;43.31;98045.44;5006631;28;19929;-83
2022/08/12 11:16:34;;;;;;;;;;;;;;;25.92;42.44;98032.59;5004168;28;20564;-83
2022/08/12 11:19:00;;;;;;;;;;;;;;;26.02;42.57;98031.22;5009351;28;20012;-85
2022/08/12 11:21:26;;;;;;;;;;;;;;;26.11;42.71;98038.06;5007599;28;19965;-84
2022/08/12 11:23:54;;;;;;;;;;;;;;;25.91;43.04;98041.13;5006057;28;19936;-84
2022/08/12 11:26:20;;;;;;;;;;;;;;;25.98;43.15;98019.41;5003816;28;20413;-83
2022/08/12 11:28:47;;;;;;;;;;;;;;;26.08;42.96;98027.03;5011302;28;20666;-82
2022/08/12 11:31:13;;;;;;;;;;;;;;;26.03;42.69;98022.63;5007110;28;20462;-84
2022/08/12 11:33:39;;;;;;;;;;;;;;;26.12;43.08;98014.22;5008709;28;20041;-83
2022/08/12 11:36:06;;;;;;;;;;;;;;;26.29;42.93;98013.78;5006644;28;20578;-82
2022/08/12 11:38:33;;;;;;;;;;;;;;;26.31;42.59;98014.19;4991690;28;19973;-84
2022/08/12 11:41:02;;;;;;;;;;;;;;;26.17;43.01;98008.47;5004456;28;20532;-84
2022/08/12 11:43:29;;;;;;;;;;;;;;;26.34;42.73;98013.47;5003962;28;19971;-82
2022/08/12 11:45:55;;;;;;;;;;;;;;;26.26;42.62;98009.81;5009468;28;19968;-84
2022/08/12 11:48:21;;;;;;;;;;;;;;;26.29;42.67;97997.34;5001023;28;19932;-82
2022/08/12 11:50:48;;;;;;;;;;;;;;;26.20;42.77;97999.53;4998120;28;19926;-84
2022/08/12 11:53:14;;;;;;;;;;;;;;;26.23;43.15;97998.81;4998772;28;19930;-83
2022/08/12 11:55:41;;;;;;;;;;;;;;;26.52;42.90;98003.63;4999303;28;19961;-83
2022/08/12 11:58:08;;;;;;;;;;;;;;;26.41;42.97;98007.31;4989366;28;20032;-84
2022/08/12 12:00:35;;;;;;;;;;;;;;;26.37;42.40;98004.53;4993437;28;20057;-83
2022/08/12 12:03:01;;;;;;;;;;;;;;;26.70;42.30;97992.97;5003513;28;20396;-83
2022/08/12 12:05:28;;;;;;;;;;;;;;;26.60;42.20;97991.66;5009010;28;19975;-83
2022/08/12 12:07:54;;;;;;;;;;;;;;;26.91;41.72;97995.28;5007598;28;19926;-84
2022/08/12 12:10:20;;;;;;;;;;;;;;;26.69;41.68;98005.88;5004375;28;19925;-82
2022/08/12 12:12:47;;;;;;;;;;;;;;;26.48;41.85;97993.78;5008228;28;19934;-83
2022/08/12 12:15:15;;;;;;;;;;;;;;;26.33;42.33;97984.53;5007646;28;19929;-83
2022/08/12 12:17:41;;;;;;;;;;;;;;;26.32;42.24;97993.09;5008206;28;19991;-83
2022/08/12 12:20:09;;;;;;;;;;;;;;;26.41;42.46;97990.91;5005542;28;20076;-83
2022/08/12 12:22:35;;;;;;;;;;;;;;;26.54;42.38;97981.34;5005763;28;19926;-82
2022/08/12 12:25:02;;;;;;;;;;;;;;;26.23;42.56;97974.97;5006862;28;20012;-84
2022/08/12 12:27:28;;;;;;;;;;;;;;;26.33;42.58;97979.03;5008131;28;19938;-84
2022/08/12 12:29:55;;;;;;;;;;;;;;;26.35;42.69;97965.78;5007674;28;20020;-84
2022/08/12 12:32:23;;;;;;;;;;;;;;;26.38;42.62;97967.78;4999878;28;19992;-83
2022/08/12 12:34:49;;;;;;;;;;;;;;;26.27;42.69;97973.06;5000696;28;19930;-84
2022/08/12 12:37:15;;;;;;;;;;;;;;;26.40;42.87;97975.66;5000233;28;19930;-84
2022/08/12 12:39:42;;;;;;;;;;;;;;;26.54;42.71;97964.91;5002770;28;19959;-84
2022/08/12 12:42:09;;;;;;;;;;;;;;;26.44;42.99;97968.25;5004967;28;19929;-84
2022/08/12 12:44:35;;;;;;;;;;;;;;;26.63;42.76;97981.91;5007217;28;20415;-83
2022/08/12 12:47:01;;;;;;;;;;;;;;;26.70;42.37;97963.63;5015368;28;20339;-85
2022/08/12 12:49:29;;;;;;;;;;;;;;;26.99;41.87;97958.59;4998371;28;19971;-85
2022/08/12 12:51:56;;;;;;;;;;;;;;;26.98;41.36;97957.03;5006288;28;19925;-83
2022/08/12 12:54:22;;;;;;;;;;;;;;;26.78;41.31;97959.84;4993995;28;20028;-84
2022/08/12 12:56:50;;;;;;;;;;;;;;;26.77;41.44;97958.25;5003548;28;19929;-84
2022/08/12 12:59:17;;;;;;;;;;;;;;;26.96;41.08;97959.34;4999457;28;19944;-84
2022/08/12 13:01:44;;;;;;;;;;;;;;;26.72;41.71;97955.84;5000358;28;19973;-84
2022/08/12 13:04:10;;;;;;;;;;;;;;;26.66;41.69;97957.31;5005555;28;20468;-83
2022/08/12 13:06:40;;;;;;;;;;;;;;;26.65;41.96;97961.19;5006337;28;19929;-83
2022/08/12 13:09:06;;;;;;;;;;;;;;;26.56;42.04;97962.59;5006190;28;20371;-83
2022/08/12 13:11:32;;;;;;;;;;;;;;;26.55;42.14;97955.56;5002264;28;19930;-84
2022/08/12 13:13:59;;;;;;;;;;;;;;;26.38;42.54;97956.03;5006797;28;19933;-84
2022/08/12 13:16:28;;;;;;;;;;;;;;;26.31;42.45;97962.16;5006151;28;19952;-82
2022/08/12 13:18:55;;;;;;;;;;;;;;;26.41;42.19;97971.72;5009009;28;19992;-84
2022/08/12 13:21:21;;;;;;;;;;;;;;;26.49;41.83;97962.50;5008531;28;19926;-83
2022/08/12 13:23:50;;;;;;;;;;;;;;;26.55;41.29;97959.09;5004687;28;20016;-83
2022/08/12 13:26:17;;;;;;;;;;;;;;;26.46;41.34;97957.75;5003894;28;20025;-83
2022/08/12 13:28:44;;;;;;;;;;;;;;;26.62;40.35;97961.13;5011141;28;19936;-82
2022/08/12 13:31:11;;;;;;;;;;;;;;;26.52;40.54;97950.81;4997370;28;19936;-84
2022/08/12 13:33:38;;;;;;;;;;;;;;;26.69;40.60;97950.28;4999107;28;20293;-84
2022/08/12 13:36:05;;;;;;;;;;;;;;;26.73;40.02;97968.38;5004118;28;20035;-83
2022/08/12 13:38:34;;;;;;;;;;;;;;;26.38;41.03;97956.03;5010327;28;20348;-83
2022/08/12 13:41:03;;;;;;;;;;;;;;;26.34;41.56;97955.97;4997542;28;19931;-82
2022/08/12 13:43:29;;;;;;;;;;;;;;;26.22;41.77;97956.16;4997735;28;20082;-84
2022/08/12 13:45:55;;;;;;;;;;;;;;;26.17;41.83;97957.25;4995581;28;19936;-83
2022/08/12 13:48:22;;;;;;;;;;;;;;;26.25;41.68;97958.16;5003100;28;19932;-85
2022/08/12 13:50:48;;;;;;;;;;;;;;;26.36;41.39;97958.34;4995116;28;20762;-84
2022/08/12 13:53:16;;;;;;;;;;;;;;;26.28;41.55;97968.38;4997225;28;20365;-82
2022/08/12 13:55:45;;;;;;;;;;;;;;;26.42;41.69;97963.16;5003874;28;19956;-84
2022/08/12 13:58:15;;;;;;;;;;;;;;;26.51;41.81;97966.44;5005315;28;19947;-86
2022/08/12 14:00:44;;;;;;;;;;;;;;;26.43;41.08;97967.47;4997219;28;19936;-86
2022/08/12 14:03:13;;;;;;;;;;;;;;;26.34;41.69;97955.19;5004162;28;19952;-87
2022/08/12 14:05:39;;;;;;;;;;;;;;;26.48;41.34;97963.66;5006310;28;19934;-84
2022/08/12 14:08:07;;;;;;;;;;;;;;;26.44;41.46;97965.53;5004743;28;19932;-85
2022/08/12 14:10:37;;;;;;;;;;;;;;;26.47;41.55;97954.63;5002207;28;20558;-84
2022/08/12 14:13:05;;;;;;;;;;;;;;;26.44;41.48;97955.38;4996043;28;19925;-84
2022/08/12 14:15:33;;;;;;;;;;;;;;;26.30;41.71;97949.66;5000892;28;20546;-84
2022/08/12 14:18:09;;;;;;;;;;;;;;;26.31;41.59;97943.00;4998265;28;19933;-84
2022/08/12 14:20:36;;;;;;;;;;;;;;;26.40;41.55;97940.81;4998591;28;20474;-84
2022/08/12 14:23:02;;;;;;;;;;;;;;;26.48;41.47;97941.72;4996044;28;20416;-84
2022/08/12 14:25:29;;;;;;;;;;;;;;;26.41;41.22;97938.88;5002267;28;20472;-85
2022/08/12 14:28:02;;;;;;;;;;;;;;;28.25;42.05;97914.72;4994335;28;19938;-84
2022/08/12 14:30:29;;;;;;;;;;;;;;;28.33;41.61;97932.84;5001216;28;19933;-85
2022/08/12 14:33:00;;;;;;;;;;;;;;;28.84;41.83;97930.91;4996094;28;19932;-84
2022/08/12 14:35:26;;;;;;;;;;;;;;;27.95;45.37;97938.69;4995514;28;19942;-83
2022/08/12 14:37:53;;;;;;;;;;;;;;;26.28;55.56;97951.94;4993803;28;19930;-84